createdAt,value
2018-04-27T00:00:27.126Z,32.57
2018-04-27T00:03:29.608Z,33.27
2018-04-27T00:06:32.085Z,28.80
2018-04-27T00:09:34.702Z,27.47
2018-04-27T00:12:37.195Z,26.23
2018-04-27T00:15:39.665Z,26.10
2018-04-27T00:18:42.135Z,31.40
2018-04-27T00:21:44.602Z,25.27
2018-04-27T00:24:47.059Z,33.73
2018-04-27T00:27:49.564Z,29.37
2018-04-27T00:30:51.981Z,27.10
2018-04-27T00:33:54.484Z,31.67
2018-04-27T00:36:56.919Z,32.30
2018-04-27T00:39:59.382Z,28.40
2018-04-27T00:43:01.891Z,33.37
2018-04-27T00:46:04.355Z,34.10
2018-04-27T00:49:06.799Z,38.53
2018-04-27T00:52:09.281Z,32.57
2018-04-27T00:55:11.748Z,28.80
2018-04-27T00:58:14.236Z,30.77
2018-04-27T01:01:16.750Z,33.57
2018-04-27T01:04:19.298Z,30.27
2018-04-27T01:07:21.808Z,31.17
2018-04-27T01:10:24.293Z,27.40
2018-04-27T01:13:26.748Z,33.70
2018-04-27T01:16:29.211Z,32.97
2018-04-27T01:19:31.707Z,26.90
2018-04-27T01:22:34.178Z,29.63
2018-04-27T01:25:36.606Z,33.43
2018-04-27T01:28:39.117Z,35.37
2018-04-27T01:31:41.536Z,28.60
2018-04-27T01:34:44.032Z,37.93
2018-04-27T01:37:46.520Z,30.63
2018-04-27T01:40:48.996Z,35.07
2018-04-27T01:43:51.517Z,32.77
2018-04-27T01:46:54.039Z,29.60
2018-04-27T01:49:56.526Z,39.97
2018-04-27T01:52:59.063Z,28.50
2018-04-27T01:56:01.543Z,29.70
2018-04-27T01:59:04.023Z,32.37
2018-04-27T02:02:06.478Z,29.20
2018-04-27T02:05:08.972Z,36.10
2018-04-27T02:08:11.482Z,27.87
2018-04-27T02:11:13.958Z,32.20
2018-04-27T02:14:16.452Z,30.87
2018-04-27T02:17:18.935Z,29.13
2018-04-27T02:20:21.397Z,29.60
2018-04-27T02:23:23.889Z,32.23
2018-04-27T02:26:26.452Z,35.10
2018-04-27T02:29:28.908Z,31.30
2018-04-27T02:32:31.393Z,38.93
2018-04-27T02:35:33.873Z,39.27
2018-04-27T02:38:36.397Z,36.90
2018-04-27T02:41:38.883Z,34.87
2018-04-27T02:44:41.322Z,36.17
2018-04-27T02:47:43.878Z,41.93
2018-04-27T02:50:46.343Z,35.17
2018-04-27T02:53:48.963Z,37.43
2018-04-27T02:56:51.427Z,41.30
2018-04-27T02:59:53.945Z,31.80
2018-04-27T03:02:56.398Z,32.77
2018-04-27T03:05:58.950Z,36.50
2018-04-27T03:09:01.438Z,36.70
2018-04-27T03:12:03.980Z,35.13
2018-04-27T03:15:06.488Z,36.80
2018-04-27T03:18:08.944Z,40.80
2018-04-27T03:21:11.437Z,41.10
2018-04-27T03:24:14.000Z,31.50
2018-04-27T03:27:16.504Z,40.33
2018-04-27T03:30:18.960Z,43.27
2018-04-27T03:33:21.448Z,34.97
2018-04-27T03:36:23.968Z,42.33
2018-04-27T03:39:26.413Z,37.27
2018-04-27T03:42:28.931Z,49.97
2018-04-27T03:45:31.459Z,35.00
2018-04-27T03:48:34.014Z,31.47
2018-04-27T03:51:36.504Z,33.13
2018-04-27T03:54:38.943Z,35.73
2018-04-27T03:57:41.417Z,35.93
2018-04-27T04:00:55.832Z,34.30
2018-04-27T04:04:10.168Z,40.60
2018-04-27T04:07:12.745Z,34.37
2018-04-27T04:10:15.185Z,40.90
2018-04-27T04:13:17.668Z,35.13
2018-04-27T04:16:20.209Z,31.73
2018-04-27T04:19:22.692Z,29.20
2018-04-27T04:22:25.143Z,37.47
2018-04-27T04:25:27.622Z,34.57
2018-04-27T04:28:30.083Z,31.43
2018-04-27T04:31:32.583Z,26.80
2018-04-27T04:34:35.167Z,25.30
2018-04-27T04:37:37.648Z,25.43
2018-04-27T04:40:40.117Z,24.67
2018-04-27T04:43:42.654Z,26.87
2018-04-27T04:46:45.219Z,21.90
2018-04-27T04:49:47.799Z,32.23
2018-04-27T04:52:50.364Z,30.97
2018-04-27T04:55:52.835Z,29.73
2018-04-27T04:58:55.343Z,27.27
2018-04-27T05:01:57.823Z,25.20
2018-04-27T05:05:00.358Z,27.73
2018-04-27T05:08:02.920Z,23.60
2018-04-27T05:11:05.519Z,28.30
2018-04-27T05:14:07.978Z,26.80
2018-04-27T05:17:10.464Z,24.33
2018-04-27T05:20:12.428Z,24.77
2018-04-27T05:23:14.906Z,25.17
2018-04-27T05:26:17.463Z,18.80
2018-04-27T05:29:19.999Z,22.00
2018-04-27T05:32:22.483Z,17.30
2018-04-27T05:35:24.946Z,17.90
2018-04-27T05:38:27.414Z,13.60
2018-04-27T05:41:29.894Z,18.13
2018-04-27T05:44:32.480Z,16.00
2018-04-27T05:47:35.006Z,13.57
2018-04-27T05:50:37.482Z,18.37
2018-04-27T05:53:39.998Z,16.47
2018-04-27T05:56:42.560Z,17.80
2018-04-27T05:59:45.065Z,17.13
2018-04-27T06:02:47.559Z,16.63
2018-04-27T06:05:50.069Z,20.30
2018-04-27T06:08:52.685Z,14.40
2018-04-27T06:11:55.240Z,14.90
2018-04-27T06:14:57.740Z,20.93
2018-04-27T06:18:00.221Z,14.13
2018-04-27T06:21:02.675Z,14.10
2018-04-27T06:24:05.139Z,13.90
2018-04-27T06:27:07.666Z,16.33
2018-04-27T06:30:10.260Z,18.37
2018-04-27T06:33:12.728Z,15.40
2018-04-27T06:36:15.272Z,19.80
2018-04-27T06:39:17.797Z,20.17
2018-04-27T06:42:20.989Z,18.30
2018-04-27T06:45:23.484Z,16.20
2018-04-27T06:48:25.978Z,21.80
2018-04-27T06:51:28.431Z,15.87
2018-04-27T06:54:30.985Z,20.10
2018-04-27T06:57:33.455Z,17.83
2018-04-27T07:00:35.950Z,16.63
2018-04-27T07:03:38.500Z,14.90
2018-04-27T07:06:40.965Z,16.57
2018-04-27T07:09:43.444Z,20.77
2018-04-27T07:12:45.981Z,18.93
2018-04-27T07:15:48.439Z,15.93
2018-04-27T07:18:50.959Z,15.27
2018-04-27T07:21:53.455Z,15.73
2018-04-27T07:24:55.956Z,16.30
2018-04-27T07:27:58.421Z,17.27
2018-04-27T07:31:00.927Z,19.80
2018-04-27T07:34:03.377Z,17.80
2018-04-27T07:37:05.876Z,19.93
2018-04-27T07:40:08.347Z,18.03
2018-04-27T07:43:10.836Z,19.03
2018-04-27T07:46:13.317Z,15.30
2018-04-27T07:49:15.774Z,18.40
2018-04-27T07:52:18.380Z,17.07
2018-04-27T07:55:20.995Z,14.73
2018-04-27T07:58:23.710Z,18.53
2018-04-27T08:01:26.194Z,16.07
2018-04-27T08:04:28.694Z,19.17
2018-04-27T08:07:31.250Z,17.73
2018-04-27T08:10:33.774Z,17.43
2018-04-27T08:13:36.275Z,23.20
2018-04-27T08:16:38.731Z,19.63
2018-04-27T08:19:41.195Z,14.90
2018-04-27T08:22:43.637Z,15.67
2018-04-27T08:25:46.165Z,14.20
2018-04-27T08:28:48.618Z,20.20
2018-04-27T08:31:51.097Z,19.57
2018-04-27T08:34:53.524Z,11.97
2018-04-27T08:37:56.016Z,10.70
2018-04-27T08:40:58.476Z,17.97
2018-04-27T08:44:00.966Z,12.60
2018-04-27T08:47:03.537Z,12.07
2018-04-27T08:50:05.992Z,14.10
2018-04-27T08:53:08.481Z,15.87
2018-04-27T08:56:10.971Z,10.63
2018-04-27T08:59:13.452Z,15.23
2018-04-27T09:02:15.959Z,10.53
2018-04-27T09:05:18.452Z,12.00
2018-04-27T09:08:20.942Z,11.13
2018-04-27T09:11:23.483Z,6.87
2018-04-27T09:14:26.145Z,9.83
2018-04-27T09:17:28.615Z,9.40
2018-04-27T09:20:31.147Z,9.07
2018-04-27T09:23:33.660Z,12.20
2018-04-27T09:26:36.099Z,10.27
2018-04-27T09:29:38.637Z,9.73
2018-04-27T09:32:41.112Z,9.60
2018-04-27T09:35:43.675Z,9.90
2018-04-27T09:38:46.144Z,10.13
2018-04-27T09:41:48.671Z,10.50
2018-04-27T09:44:51.160Z,8.87
2018-04-27T09:47:53.604Z,9.37
2018-04-27T09:50:56.153Z,10.13
2018-04-27T09:53:58.679Z,9.30
2018-04-27T09:57:01.228Z,13.40
2018-04-27T10:00:03.727Z,12.20
2018-04-27T10:03:06.179Z,6.00
2018-04-27T10:06:08.668Z,9.97
2018-04-27T10:09:11.173Z,5.57
2018-04-27T10:12:13.695Z,7.73
2018-04-27T10:15:16.092Z,7.20
2018-04-27T10:18:18.719Z,8.70
2018-04-27T10:21:21.260Z,3.37
2018-04-27T10:24:23.717Z,7.33
2018-04-27T10:27:26.247Z,7.87
2018-04-27T10:30:28.706Z,12.40
2018-04-27T10:33:31.175Z,8.30
2018-04-27T10:36:33.763Z,8.57
2018-04-27T10:39:36.263Z,8.30
2018-04-27T10:42:38.799Z,3.73
2018-04-27T10:45:41.287Z,4.67
2018-04-27T10:48:43.772Z,4.50
2018-04-27T10:51:46.281Z,7.90
2018-04-27T10:54:48.723Z,6.73
2018-04-27T10:57:51.339Z,6.87
2018-04-27T11:00:53.839Z,5.40
2018-04-27T11:03:56.363Z,7.37
2018-04-27T11:06:58.829Z,7.93
2018-04-27T11:10:01.390Z,6.10
2018-04-27T11:13:03.839Z,4.83
2018-04-27T11:16:06.351Z,6.23
2018-04-27T11:19:08.809Z,8.03
2018-04-27T11:22:11.290Z,7.07
2018-04-27T11:25:13.751Z,5.63
2018-04-27T11:28:16.286Z,11.20
2018-04-27T11:31:18.783Z,8.17
2018-04-27T11:34:21.259Z,5.80
2018-04-27T11:37:23.736Z,5.23
2018-04-27T11:40:26.218Z,5.17
2018-04-27T11:43:28.716Z,5.17
2018-04-27T11:46:31.217Z,7.37
2018-04-27T11:49:33.671Z,7.90
2018-04-27T11:52:36.212Z,8.60
2018-04-27T11:55:38.678Z,6.93
2018-04-27T11:58:41.186Z,6.87
2018-04-27T12:01:43.699Z,4.83
2018-04-27T12:04:46.200Z,8.73
2018-04-27T12:07:48.738Z,6.70
2018-04-27T12:10:51.204Z,7.80
2018-04-27T12:13:54.085Z,7.37
2018-04-27T12:16:56.995Z,10.07
2018-04-27T12:19:59.546Z,8.53
2018-04-27T12:23:02.075Z,11.77
2018-04-27T12:26:04.742Z,4.33
2018-04-27T12:29:07.293Z,6.63
2018-04-27T12:32:09.814Z,6.80
2018-04-27T12:35:12.275Z,6.53
2018-04-27T12:38:14.737Z,7.50
2018-04-27T12:41:17.185Z,8.30
2018-04-27T12:44:19.671Z,8.13
2018-04-27T12:47:22.122Z,8.17
2018-04-27T12:50:24.637Z,6.57
2018-04-27T12:53:27.150Z,9.20
2018-04-27T12:56:29.661Z,6.80
2018-04-27T12:59:32.169Z,9.47
2018-04-27T13:02:34.606Z,5.87
2018-04-27T13:05:37.098Z,7.90
2018-04-27T13:08:39.569Z,3.50
2018-04-27T13:11:42.157Z,7.77
2018-04-27T13:14:44.721Z,7.20
2018-04-27T13:17:47.311Z,10.77
2018-04-27T13:20:49.870Z,6.60
2018-04-27T13:23:52.330Z,9.27
2018-04-27T13:26:54.877Z,8.50
2018-04-27T13:29:57.355Z,4.13
2018-04-27T13:32:59.829Z,7.43
2018-04-27T13:36:02.332Z,5.60
2018-04-27T13:39:05.507Z,4.60
2018-04-27T13:42:07.972Z,7.83
2018-04-27T13:45:10.448Z,5.80
2018-04-27T13:48:12.913Z,8.40
2018-04-27T13:51:15.476Z,9.43
2018-04-27T13:54:17.971Z,6.23
2018-04-27T13:57:20.454Z,7.40
2018-04-27T14:00:22.955Z,5.57
2018-04-27T14:03:25.445Z,4.40
2018-04-27T14:06:27.930Z,9.20
2018-04-27T14:09:30.443Z,7.53
2018-04-27T14:12:32.944Z,7.03
2018-04-27T14:15:35.516Z,5.87
2018-04-27T14:18:37.963Z,10.50
2018-04-27T14:21:40.468Z,10.00
2018-04-27T14:24:42.926Z,9.17
2018-04-27T14:27:45.416Z,6.33
2018-04-27T14:30:47.922Z,5.00
2018-04-27T14:33:50.484Z,8.17
2018-04-27T14:36:52.921Z,2.73
2018-04-27T14:39:55.486Z,6.20
2018-04-27T14:42:58.022Z,6.97
2018-04-27T14:46:00.520Z,4.90
2018-04-27T14:49:02.999Z,5.73
2018-04-27T14:52:05.467Z,4.00
2018-04-27T14:55:07.959Z,3.73
2018-04-27T14:58:10.453Z,5.67
2018-04-27T15:01:12.968Z,2.60
2018-04-27T15:04:15.719Z,4.27
2018-04-27T15:07:18.223Z,2.80
2018-04-27T15:10:20.710Z,4.37
2018-04-27T15:13:23.148Z,4.67
2018-04-27T15:16:25.700Z,4.63
2018-04-27T15:19:28.374Z,8.20
2018-04-27T15:22:30.893Z,4.33
2018-04-27T15:25:33.387Z,4.60
2018-04-27T15:28:35.855Z,8.00
2018-04-27T15:31:38.377Z,6.20
2018-04-27T15:34:40.823Z,9.00
2018-04-27T15:37:43.338Z,8.53
2018-04-27T15:40:45.833Z,5.20
2018-04-27T15:43:48.294Z,5.27
2018-04-27T15:46:50.919Z,2.70
2018-04-27T15:49:53.485Z,7.13
2018-04-27T15:52:55.943Z,5.93
2018-04-27T15:55:58.437Z,3.37
2018-04-27T15:59:00.959Z,6.07
2018-04-27T16:02:03.532Z,10.23
2018-04-27T16:05:06.101Z,5.10
2018-04-27T16:08:08.628Z,7.80
2018-04-27T16:11:11.111Z,5.10
2018-04-27T16:14:13.683Z,4.80
2018-04-27T16:17:16.209Z,6.20
2018-04-27T16:20:18.811Z,6.53
2018-04-27T16:23:21.280Z,8.03
2018-04-27T16:26:24.622Z,8.87
2018-04-27T16:29:27.130Z,7.77
2018-04-27T16:32:29.594Z,5.10
2018-04-27T16:35:32.072Z,5.80
2018-04-27T16:38:34.569Z,6.13
2018-04-27T16:41:37.023Z,5.43
2018-04-27T16:44:39.584Z,5.03
2018-04-27T16:47:42.118Z,8.30
2018-04-27T16:50:44.603Z,6.50
2018-04-27T16:53:47.147Z,7.63
2018-04-27T16:56:49.635Z,6.93
2018-04-27T16:59:52.085Z,5.53
2018-04-27T17:02:54.533Z,7.13
2018-04-27T17:05:57.040Z,10.30
2018-04-27T17:08:59.607Z,6.20
2018-04-27T17:12:02.129Z,6.03
2018-04-27T17:15:04.548Z,7.63
2018-04-27T17:18:07.045Z,11.63
2018-04-27T17:21:09.571Z,8.87
2018-04-27T17:24:12.103Z,9.03
2018-04-27T17:27:14.545Z,7.83
2018-04-27T17:30:17.133Z,7.33
2018-04-27T17:33:19.605Z,6.43
2018-04-27T17:36:22.108Z,8.73
2018-04-27T17:39:24.578Z,6.80
2018-04-27T17:42:27.086Z,6.10
2018-04-27T17:45:29.569Z,6.10
2018-04-27T17:48:32.053Z,3.47
2018-04-27T17:51:34.517Z,6.37
2018-04-27T17:54:37.031Z,7.13
2018-04-27T17:57:39.499Z,6.50
2018-04-27T18:00:42.064Z,3.10
2018-04-27T18:03:44.573Z,5.80
2018-04-27T18:06:47.111Z,4.70
2018-04-27T18:09:49.649Z,6.23
2018-04-27T18:12:52.131Z,6.30
2018-04-27T18:15:54.586Z,3.13
2018-04-27T18:18:57.120Z,5.40
2018-04-27T18:21:59.730Z,8.30
2018-04-27T18:25:02.298Z,7.67
2018-04-27T18:28:04.732Z,5.43
2018-04-27T18:31:07.240Z,5.80
2018-04-27T18:34:09.745Z,6.93
2018-04-27T18:37:12.238Z,4.40
2018-04-27T18:40:14.743Z,9.13
2018-04-27T18:43:17.265Z,8.23
2018-04-27T18:46:19.994Z,4.53
2018-04-27T18:49:22.468Z,4.83
2018-04-27T18:52:25.011Z,7.80
2018-04-27T18:55:27.564Z,5.13
2018-04-27T18:58:30.087Z,7.60
2018-04-27T19:01:32.663Z,7.47
2018-04-27T19:04:35.259Z,3.90
2018-04-27T19:07:37.715Z,6.20
2018-04-27T19:10:40.214Z,7.10
2018-04-27T19:13:42.711Z,6.50
2018-04-27T19:16:45.299Z,7.20
2018-04-27T19:19:47.759Z,6.60
2018-04-27T19:22:50.287Z,3.77
2018-04-27T19:25:57.431Z,4.17
2018-04-27T19:28:59.911Z,6.00
2018-04-27T19:32:02.514Z,4.43
2018-04-27T19:35:05.075Z,8.23
2018-04-27T19:38:07.603Z,11.47
2018-04-27T19:41:10.063Z,5.23
2018-04-27T19:44:12.589Z,12.07
2018-04-27T19:47:15.093Z,16.23
2018-04-27T19:50:17.603Z,6.07
2018-04-27T19:53:20.166Z,6.10
2018-04-27T19:56:22.676Z,5.47
2018-04-27T19:59:25.278Z,8.50
2018-04-27T20:02:27.744Z,5.97
2018-04-27T20:05:30.262Z,8.53
2018-04-27T20:08:33.403Z,7.50
2018-04-27T20:11:35.886Z,5.43
2018-04-27T20:14:39.116Z,5.23
2018-04-27T20:17:42.368Z,4.60
2018-04-27T20:20:45.536Z,6.37
2018-04-27T20:23:48.041Z,8.57
2018-04-27T20:26:50.511Z,6.10
2018-04-27T20:29:54.770Z,5.37
2018-04-27T20:32:57.217Z,3.73
2018-04-27T20:36:00.445Z,4.67
2018-04-27T20:39:02.991Z,6.73
2018-04-27T20:42:07.180Z,6.37
2018-04-27T20:45:21.491Z,11.63
2018-04-27T20:48:24.779Z,9.43
2018-04-27T20:51:27.240Z,10.20
2018-04-27T20:54:29.720Z,8.60
2018-04-27T20:57:32.216Z,8.57
2018-04-27T21:00:34.731Z,7.40
2018-04-27T21:03:37.219Z,6.40
2018-04-27T21:06:39.745Z,14.80
2018-04-27T21:09:42.247Z,9.97
2018-04-27T21:12:44.758Z,10.17
2018-04-27T21:15:47.237Z,9.50
2018-04-27T21:18:49.736Z,10.10
2018-04-27T21:21:52.327Z,5.73
2018-04-27T21:24:54.887Z,8.27
2018-04-27T21:27:57.349Z,9.80
2018-04-27T21:30:59.848Z,6.10
2018-04-27T21:34:02.377Z,5.50
2018-04-27T21:37:04.886Z,9.87
2018-04-27T21:40:07.326Z,10.00
2018-04-27T21:43:09.908Z,5.07
2018-04-27T21:46:12.372Z,6.47
2018-04-27T21:49:14.843Z,7.63
2018-04-27T21:55:47.075Z,9.80
2018-04-27T21:58:49.507Z,8.43
2018-04-27T22:01:51.998Z,7.80
2018-04-27T22:04:54.446Z,6.53
2018-04-27T22:07:56.958Z,7.43
2018-04-27T22:11:15.238Z,13.70
2018-04-27T22:14:21.720Z,6.17
2018-04-27T22:17:29.922Z,7.80
2018-04-27T22:20:32.398Z,8.73
2018-04-27T22:23:36.718Z,7.53
2018-04-27T22:26:41.750Z,7.60
2018-04-27T22:29:46.909Z,7.40
2018-04-27T22:32:49.367Z,9.27
2018-04-27T22:36:09.723Z,7.03
2018-04-27T22:43:01.300Z,10.07
2018-04-27T22:46:10.353Z,12.83
2018-04-27T22:49:15.652Z,12.63
2018-04-27T22:52:18.074Z,5.90
2018-04-27T22:55:20.667Z,7.23
2018-04-27T22:58:23.139Z,10.30
2018-04-27T23:01:25.705Z,6.13
2018-04-27T23:04:28.193Z,5.03
2018-04-27T23:07:41.311Z,9.10
2018-04-27T23:10:57.499Z,9.10
2018-04-27T23:17:46.483Z,7.53
2018-04-27T23:21:03.648Z,10.50
2018-04-27T23:24:06.896Z,8.53
2018-04-27T23:27:09.394Z,7.67
2018-04-27T23:30:11.826Z,6.40
2018-04-27T23:33:14.327Z,11.10
2018-04-27T23:36:16.787Z,5.30
2018-04-27T23:39:19.232Z,9.73
2018-04-27T23:42:22.506Z,5.70
2018-04-27T23:45:24.982Z,7.47
2018-04-27T23:48:27.523Z,6.90
2018-04-27T23:51:30.028Z,6.30
2018-04-27T23:54:32.565Z,7.40
2018-04-27T23:57:34.982Z,7.03
